Time;durP1;ratioP1;P1;durP2;ratioP2;P2;SDS_P1;SDS_P2;PMS_P1;PMS_P2;Temp;Humidity;BMP_temperature;BMP_pressure;BME280_temperature;BME280_humidity;BME280_pressure;Samples;Min_cycle;Max_cycle;Signal;HPM_P1;HPM_P2
2021/08/18 00:00:51;;;;;;;9.60;4.70;;;;;;;;;;5029946;28;20435;-68
2021/08/18 00:03:17;;;;;;;13.50;5.20;;;;;;;;;;5033034;28;20430;-68
2021/08/18 00:05:43;;;;;;;9.07;4.23;;;;;;;;;;5030889;28;20954;-68
2021/08/18 00:08:10;;;;;;;6.93;4.50;;;;;;;;;;5032947;28;20492;-68
2021/08/18 00:10:37;;;;;;;7.90;4.77;;;;;;;;;;5031526;28;20434;-68
2021/08/18 00:13:04;;;;;;;12.83;5.27;;;;;;;;;;5040193;23;20647;-73
2021/08/18 00:15:30;;;;;;;9.13;4.80;;;;;;;;;;5015733;28;20845;-73
2021/08/18 00:18:00;;;;;;;11.30;5.00;;;;;;;;;;5016769;28;20438;-73
2021/08/18 00:20:27;;;;;;;8.53;4.87;;;;;;;;;;5016661;28;20829;-73
2021/08/18 00:22:53;;;;;;;14.90;5.53;;;;;;;;;;5017508;28;20427;-73
2021/08/18 00:25:19;;;;;;;9.67;5.83;;;;;;;;;;5015861;28;20411;-73
2021/08/18 00:27:45;;;;;;;8.23;4.60;;;;;;;;;;5016511;28;20454;-73
2021/08/18 00:30:11;;;;;;;9.30;5.17;;;;;;;;;;5016561;28;20420;-73
2021/08/18 00:32:37;;;;;;;7.90;5.13;;;;;;;;;;5017130;28;20400;-73
2021/08/18 00:35:04;;;;;;;9.07;5.17;;;;;;;;;;5016120;28;20839;-73
2021/08/18 00:37:30;;;;;;;8.77;5.33;;;;;;;;;;5016422;28;20400;-73
2021/08/18 00:39:56;;;;;;;7.67;4.60;;;;;;;;;;5015219;28;20768;-73
2021/08/18 00:42:22;;;;;;;9.63;4.90;;;;;;;;;;5016945;28;20399;-73
2021/08/18 00:44:48;;;;;;;10.53;5.57;;;;;;;;;;5016077;28;20424;-73
2021/08/18 00:47:14;;;;;;;8.87;4.70;;;;;;;;;;5016239;28;20490;-73
2021/08/18 00:49:40;;;;;;;11.47;5.30;;;;;;;;;;5014556;28;20554;-73
2021/08/18 00:52:06;;;;;;;10.70;5.60;;;;;;;;;;5016719;28;20495;-73
2021/08/18 00:54:32;;;;;;;7.90;5.20;;;;;;;;;;5016020;28;20424;-73
2021/08/18 00:57:01;;;;;;;12.70;6.33;;;;;;;;;;5027694;28;20797;-73
2021/08/18 00:59:27;;;;;;;11.90;4.90;;;;;;;;;;4996442;28;20405;-73
2021/08/18 01:01:53;;;;;;;7.70;4.80;;;;;;;;;;5015572;28;20912;-73
2021/08/18 01:04:19;;;;;;;7.63;4.97;;;;;;;;;;5016539;28;20813;-73
2021/08/18 01:06:46;;;;;;;8.77;5.07;;;;;;;;;;5015178;28;20518;-73
2021/08/18 01:09:16;;;;;;;10.70;5.07;;;;;;;;;;5015680;28;20847;-73
2021/08/18 01:11:42;;;;;;;8.00;5.53;;;;;;;;;;5015918;28;20423;-73
2021/08/18 01:14:09;;;;;;;12.60;5.53;;;;;;;;;;5016351;28;20928;-73
2021/08/18 01:16:36;;;;;;;9.30;5.47;;;;;;;;;;5015188;28;20477;-73
2021/08/18 01:19:03;;;;;;;9.40;5.70;;;;;;;;;;5015941;28;20798;-73
2021/08/18 01:21:30;;;;;;;10.47;5.50;;;;;;;;;;5015447;28;20901;-73
2021/08/18 01:23:56;;;;;;;7.93;5.00;;;;;;;;;;5019847;28;20446;-73
2021/08/18 01:26:22;;;;;;;10.23;6.10;;;;;;;;;;5020488;28;20907;-73
2021/08/18 01:28:50;;;;;;;9.30;5.43;;;;;;;;;;4999044;28;20468;-73
2021/08/18 01:31:17;;;;;;;13.20;6.40;;;;;;;;;;5007336;28;20419;-73
2021/08/18 01:33:43;;;;;;;10.73;5.33;;;;;;;;;;5015915;28;20478;-73
2021/08/18 01:36:09;;;;;;;9.73;5.57;;;;;;;;;;5014502;28;20431;-73
2021/08/18 01:38:35;;;;;;;10.43;6.20;;;;;;;;;;5015992;28;20487;-73
2021/08/18 01:41:01;;;;;;;9.40;5.13;;;;;;;;;;5014648;28;20983;-73
2021/08/18 01:43:27;;;;;;;12.90;6.27;;;;;;;;;;5016008;28;20482;-73
2021/08/18 01:45:54;;;;;;;8.63;5.07;;;;;;;;;;5014247;28;20431;-73
2021/08/18 01:48:25;;;;;;;11.20;5.30;;;;;;;;;;5015106;28;20542;-73
2021/08/18 01:50:52;;;;;;;12.27;5.43;;;;;;;;;;5015004;28;20769;-73
2021/08/18 01:53:20;;;;;;;10.53;4.97;;;;;;;;;;5015649;28;20485;-73
2021/08/18 01:55:49;;;;;;;13.47;6.30;;;;;;;;;;5014275;28;20434;-73
2021/08/18 01:58:15;;;;;;;11.30;5.80;;;;;;;;;;5014904;28;20418;-73
2021/08/18 02:00:41;;;;;;;10.43;5.50;;;;;;;;;;5014872;28;20441;-73
2021/08/18 02:03:07;;;;;;;9.93;5.40;;;;;;;;;;5014645;28;20459;-73
2021/08/18 02:05:33;;;;;;;10.30;6.00;;;;;;;;;;5014127;28;20408;-73
2021/08/18 02:07:59;;;;;;;10.40;5.93;;;;;;;;;;4995132;28;20459;-73
2021/08/18 02:10:27;;;;;;;11.70;5.90;;;;;;;;;;5004087;28;20412;-73
2021/08/18 02:12:54;;;;;;;11.83;5.40;;;;;;;;;;5014604;28;20470;-73
2021/08/18 02:15:21;;;;;;;7.83;4.50;;;;;;;;;;5014715;28;20479;-73
2021/08/18 02:17:48;;;;;;;9.57;5.67;;;;;;;;;;5013783;28;20495;-73
2021/08/18 02:20:15;;;;;;;9.50;5.83;;;;;;;;;;5015333;28;20418;-73
2021/08/18 02:22:41;;;;;;;14.40;7.13;;;;;;;;;;5013975;28;20459;-73
2021/08/18 02:25:08;;;;;;;12.13;5.93;;;;;;;;;;5014712;28;20412;-73
2021/08/18 02:27:34;;;;;;;13.47;6.77;;;;;;;;;;5013643;28;20911;-73
2021/08/18 02:30:00;;;;;;;10.40;5.40;;;;;;;;;;5014221;28;20903;-73
2021/08/18 02:32:26;;;;;;;9.07;4.47;;;;;;;;;;5014291;28;20431;-73
2021/08/18 02:34:52;;;;;;;11.60;6.40;;;;;;;;;;5014475;28;20407;-73
2021/08/18 02:37:18;;;;;;;10.73;5.43;;;;;;;;;;5012122;28;20432;-73
2021/08/18 02:39:44;;;;;;;10.60;5.33;;;;;;;;;;5015687;28;20781;-73
2021/08/18 02:42:11;;;;;;;8.50;5.17;;;;;;;;;;5014030;28;20439;-73
2021/08/18 02:44:37;;;;;;;15.67;7.03;;;;;;;;;;5014138;28;20467;-73
2021/08/18 02:47:04;;;;;;;10.90;6.43;;;;;;;;;;5013238;28;20428;-73
2021/08/18 02:49:30;;;;;;;10.00;6.10;;;;;;;;;;5014697;28;20466;-73
2021/08/18 02:51:56;;;;;;;10.30;7.27;;;;;;;;;;5013758;28;20424;-73
2021/08/18 02:54:23;;;;;;;10.23;5.73;;;;;;;;;;5013886;28;20900;-73
2021/08/18 02:56:50;;;;;;;16.43;6.43;;;;;;;;;;5013193;28;20486;-73
2021/08/18 02:59:16;;;;;;;10.30;5.23;;;;;;;;;;5006069;28;20432;-73
2021/08/18 03:01:42;;;;;;;10.53;6.30;;;;;;;;;;5007757;28;20427;-73
2021/08/18 03:04:08;;;;;;;9.70;5.57;;;;;;;;;;5013650;28;20439;-73
2021/08/18 03:06:34;;;;;;;10.30;6.30;;;;;;;;;;5011276;28;20430;-73
2021/08/18 03:09:00;;;;;;;10.57;6.33;;;;;;;;;;5013312;28;20455;-73
2021/08/18 03:11:26;;;;;;;11.23;7.10;;;;;;;;;;5013525;28;20420;-73
2021/08/18 03:13:52;;;;;;;9.77;5.60;;;;;;;;;;5028619;28;20591;-73
2021/08/18 03:16:18;;;;;;;13.23;5.87;;;;;;;;;;5012842;28;20435;-73
2021/08/18 03:18:44;;;;;;;10.83;6.23;;;;;;;;;;5014198;28;20423;-73
2021/08/18 03:21:11;;;;;;;16.77;7.13;;;;;;;;;;5013424;28;20411;-73
2021/08/18 03:23:37;;;;;;;10.97;5.67;;;;;;;;;;5013439;28;20442;-73
2021/08/18 03:26:03;;;;;;;13.07;6.53;;;;;;;;;;5012695;28;20457;-73
2021/08/18 03:28:29;;;;;;;12.27;6.57;;;;;;;;;;5013866;28;20467;-73
2021/08/18 03:30:55;;;;;;;14.03;7.00;;;;;;;;;;5013914;28;20429;-73
2021/08/18 03:33:21;;;;;;;10.80;6.00;;;;;;;;;;5012517;28;20459;-73
2021/08/18 03:35:47;;;;;;;11.60;6.40;;;;;;;;;;5013357;28;20491;-73
2021/08/18 03:38:13;;;;;;;12.53;6.10;;;;;;;;;;5013177;28;20434;-73
2021/08/18 03:40:39;;;;;;;12.00;6.53;;;;;;;;;;5014017;28;20411;-73
2021/08/18 03:43:05;;;;;;;10.37;6.80;;;;;;;;;;5007538;28;20813;-73
2021/08/18 03:45:31;;;;;;;12.87;6.47;;;;;;;;;;5011721;28;20490;-73
2021/08/18 03:47:57;;;;;;;12.53;6.67;;;;;;;;;;5012857;28;20513;-73
2021/08/18 03:50:23;;;;;;;12.10;6.10;;;;;;;;;;5017931;28;20415;-73
2021/08/18 03:52:49;;;;;;;12.77;6.83;;;;;;;;;;5016544;28;20447;-73
2021/08/18 03:55:16;;;;;;;13.10;6.73;;;;;;;;;;5017316;28;20487;-73
2021/08/18 03:57:42;;;;;;;13.33;7.87;;;;;;;;;;5017191;28;20927;-73
2021/08/18 04:00:09;;;;;;;13.00;6.70;;;;;;;;;;5017857;28;20888;-73
2021/08/18 04:02:36;;;;;;;12.70;7.00;;;;;;;;;;5016316;28;20450;-73
2021/08/18 04:05:02;;;;;;;12.27;6.70;;;;;;;;;;5017194;28;20407;-73
2021/08/18 04:07:28;;;;;;;14.27;6.97;;;;;;;;;;5015297;28;20420;-73
2021/08/18 04:09:54;;;;;;;13.90;7.97;;;;;;;;;;5018013;28;20916;-73
2021/08/18 04:12:20;;;;;;;14.77;8.00;;;;;;;;;;5015997;28;20434;-73
2021/08/18 04:14:46;;;;;;;12.20;6.77;;;;;;;;;;5016874;28;20421;-73
2021/08/18 04:17:12;;;;;;;12.50;6.53;;;;;;;;;;5015678;28;20462;-73
2021/08/18 04:19:38;;;;;;;15.00;6.93;;;;;;;;;;5017506;28;20418;-73
2021/08/18 04:22:05;;;;;;;12.83;7.10;;;;;;;;;;5014682;28;20426;-73
2021/08/18 04:24:31;;;;;;;12.13;7.07;;;;;;;;;;5016718;28;20450;-73
2021/08/18 04:26:57;;;;;;;11.80;6.27;;;;;;;;;;5016853;28;20419;-73
2021/08/18 04:29:23;;;;;;;13.43;7.03;;;;;;;;;;5017120;28;20858;-73
2021/08/18 04:31:49;;;;;;;16.43;7.50;;;;;;;;;;5016676;28;20410;-73
2021/08/18 04:34:15;;;;;;;15.50;7.27;;;;;;;;;;5015883;28;20538;-73
2021/08/18 04:36:41;;;;;;;12.97;6.93;;;;;;;;;;5016478;28;20466;-73
2021/08/18 04:39:07;;;;;;;12.97;6.50;;;;;;;;;;5017158;28;20416;-73
2021/08/18 04:41:33;;;;;;;13.53;6.60;;;;;;;;;;5015685;28;20410;-73
2021/08/18 04:43:59;;;;;;;12.37;6.63;;;;;;;;;;5016519;28;20498;-73
2021/08/18 04:46:25;;;;;;;12.10;6.87;;;;;;;;;;5016072;28;20892;-73
2021/08/18 04:48:51;;;;;;;19.60;8.00;;;;;;;;;;5016648;28;20462;-73
2021/08/18 04:51:17;;;;;;;14.20;7.10;;;;;;;;;;5016305;28;20868;-73
2021/08/18 04:53:43;;;;;;;11.67;6.43;;;;;;;;;;5015422;28;20967;-73
2021/08/18 04:56:09;;;;;;;12.60;7.00;;;;;;;;;;5016951;28;20408;-72
2021/08/18 04:58:35;;;;;;;14.23;7.17;;;;;;;;;;5015924;28;20876;-73
2021/08/18 05:01:01;;;;;;;12.87;7.33;;;;;;;;;;5015970;28;20778;-73
2021/08/18 05:03:27;;;;;;;12.00;7.40;;;;;;;;;;5015294;28;20443;-73
2021/08/18 05:05:53;;;;;;;12.43;7.30;;;;;;;;;;5016632;28;20418;-73
2021/08/18 05:08:19;;;;;;;18.60;10.93;;;;;;;;;;5015971;28;20464;-73
2021/08/18 05:10:45;;;;;;;12.60;7.77;;;;;;;;;;5014827;28;20502;-73
2021/08/18 05:13:11;;;;;;;13.90;7.83;;;;;;;;;;5016331;28;20936;-73
2021/08/18 05:15:37;;;;;;;16.10;8.40;;;;;;;;;;5016371;28;20431;-73
2021/08/18 05:18:06;;;;;;;15.63;7.20;;;;;;;;;;5014509;28;20788;-74
2021/08/18 05:20:32;;;;;;;13.60;7.57;;;;;;;;;;5011513;28;20466;-71
2021/08/18 05:22:58;;;;;;;13.37;7.23;;;;;;;;;;5014713;28;20463;-73
2021/08/18 05:25:24;;;;;;;15.27;8.10;;;;;;;;;;5019526;28;20812;-71
2021/08/18 05:27:50;;;;;;;15.20;8.07;;;;;;;;;;5012454;28;20595;-71
2021/08/18 05:30:17;;;;;;;14.90;6.70;;;;;;;;;;4998335;28;20462;-70
2021/08/18 05:32:43;;;;;;;14.47;7.90;;;;;;;;;;5000977;28;20459;-72
2021/08/18 05:35:11;;;;;;;13.43;7.57;;;;;;;;;;5006341;28;20496;-72
2021/08/18 05:37:37;;;;;;;11.07;7.07;;;;;;;;;;5007335;28;20904;-73
2021/08/18 05:40:04;;;;;;;12.83;7.53;;;;;;;;;;5015204;28;20903;-74
2021/08/18 05:42:30;;;;;;;14.67;8.60;;;;;;;;;;5014343;28;20432;-74
2021/08/18 05:44:56;;;;;;;13.57;7.87;;;;;;;;;;5015798;28;20470;-73
2021/08/18 05:47:22;;;;;;;12.47;7.30;;;;;;;;;;5013229;28;20436;-74
2021/08/18 05:49:49;;;;;;;12.07;7.83;;;;;;;;;;5006188;28;20869;-73
2021/08/18 05:52:15;;;;;;;15.53;9.20;;;;;;;;;;5010414;28;20434;-72
2021/08/18 05:54:41;;;;;;;17.77;8.57;;;;;;;;;;5012898;28;20450;-71
2021/08/18 05:57:07;;;;;;;17.33;8.57;;;;;;;;;;5011850;28;20458;-72
2021/08/18 05:59:33;;;;;;;14.47;8.93;;;;;;;;;;5019271;28;20404;-71
2021/08/18 06:02:00;;;;;;;15.07;8.97;;;;;;;;;;5017836;28;20423;-71
2021/08/18 06:04:26;;;;;;;18.60;9.50;;;;;;;;;;5005098;28;20436;-70
2021/08/18 06:06:54;;;;;;;14.20;7.53;;;;;;;;;;5014250;28;20501;-73
2021/08/18 06:09:20;;;;;;;18.87;9.23;;;;;;;;;;5012224;28;21051;-72
2021/08/18 06:11:46;;;;;;;18.27;10.77;;;;;;;;;;5009111;28;20501;-72
2021/08/18 06:14:12;;;;;;;15.33;8.90;;;;;;;;;;5015234;28;20447;-73
2021/08/18 06:16:38;;;;;;;18.40;9.37;;;;;;;;;;5014146;28;20917;-73
2021/08/18 06:19:04;;;;;;;15.63;10.07;;;;;;;;;;5014849;28;20408;-73
2021/08/18 06:21:30;;;;;;;14.60;8.83;;;;;;;;;;5013730;28;20432;-72
2021/08/18 06:24:03;;;;;;;13.90;9.17;;;;;;;;;;5015034;28;20432;-72
2021/08/18 06:26:29;;;;;;;12.93;8.90;;;;;;;;;;5012920;28;20427;-72
2021/08/18 06:28:55;;;;;;;19.67;10.00;;;;;;;;;;5013619;28;20459;-70
2021/08/18 06:31:21;;;;;;;17.63;10.70;;;;;;;;;;5013061;28;20442;-70
2021/08/18 06:33:48;;;;;;;16.70;10.60;;;;;;;;;;5015193;28;20853;-72
2021/08/18 06:36:14;;;;;;;19.77;9.30;;;;;;;;;;5014385;28;20400;-69
2021/08/18 06:38:40;;;;;;;16.43;10.53;;;;;;;;;;5013876;28;20415;-69
2021/08/18 06:41:06;;;;;;;17.60;10.43;;;;;;;;;;5013650;28;20430;-70
2021/08/18 06:43:32;;;;;;;14.77;9.13;;;;;;;;;;5013994;28;20455;-72
2021/08/18 06:45:58;;;;;;;16.97;9.17;;;;;;;;;;5012633;28;20416;-71
2021/08/18 06:48:24;;;;;;;18.10;10.30;;;;;;;;;;5014036;28;20471;-71
2021/08/18 06:50:50;;;;;;;16.40;10.70;;;;;;;;;;5014306;28;20486;-71
2021/08/18 06:53:16;;;;;;;18.77;10.50;;;;;;;;;;5008927;28;20440;-71
2021/08/18 06:55:42;;;;;;;18.83;9.47;;;;;;;;;;5006923;28;20800;-70
2021/08/18 06:58:08;;;;;;;16.00;10.30;;;;;;;;;;5003388;28;20916;-73
2021/08/18 07:00:34;;;;;;;19.97;9.70;;;;;;;;;;5003934;28;20441;-70
2021/08/18 07:03:00;;;;;;;15.47;9.67;;;;;;;;;;5009091;28;20460;-72
2021/08/18 07:05:32;;;;;;;17.67;10.70;;;;;;;;;;4998738;28;20443;-73
2021/08/18 07:07:58;;;;;;;17.67;11.47;;;;;;;;;;5012020;28;20474;-74
2021/08/18 07:10:24;;;;;;;18.60;9.67;;;;;;;;;;5008843;28;20429;-76
2021/08/18 07:12:50;;;;;;;16.90;10.77;;;;;;;;;;5008614;28;20459;-72
2021/08/18 07:15:16;;;;;;;18.33;9.50;;;;;;;;;;5006036;28;20936;-72
2021/08/18 07:17:42;;;;;;;20.03;10.73;;;;;;;;;;5001863;28;20427;-72
2021/08/18 07:20:08;;;;;;;18.80;10.60;;;;;;;;;;5002707;28;20474;-72
2021/08/18 07:22:34;;;;;;;16.00;8.40;;;;;;;;;;5012852;28;20423;-71
2021/08/18 07:25:00;;;;;;;16.73;10.43;;;;;;;;;;5012553;28;20419;-72
2021/08/18 07:27:28;;;;;;;19.20;10.13;;;;;;;;;;5008843;28;20470;-71
2021/08/18 07:29:55;;;;;;;17.40;10.60;;;;;;;;;;5005276;28;20467;-72
2021/08/18 07:32:21;;;;;;;18.93;10.60;;;;;;;;;;4990151;28;20439;-72
2021/08/18 07:34:47;;;;;;;18.90;11.47;;;;;;;;;;5003259;28;20431;-72
2021/08/18 07:37:14;;;;;;;18.63;10.20;;;;;;;;;;5010575;28;20428;-72
2021/08/18 07:39:40;;;;;;;25.30;10.70;;;;;;;;;;5004351;28;20794;-72
2021/08/18 07:42:06;;;;;;;18.47;10.20;;;;;;;;;;5003662;28;20432;-72
2021/08/18 07:44:32;;;;;;;23.40;12.13;;;;;;;;;;5003914;28;20441;-72
2021/08/18 07:46:58;;;;;;;29.73;10.63;;;;;;;;;;5008600;28;20438;-72
2021/08/18 07:49:24;;;;;;;15.33;9.80;;;;;;;;;;5010660;28;20455;-72
2021/08/18 07:51:50;;;;;;;18.10;10.47;;;;;;;;;;5004491;28;20506;-72
2021/08/18 07:54:16;;;;;;;19.97;11.00;;;;;;;;;;5008685;28;20963;-73
2021/08/18 07:56:42;;;;;;;23.80;11.90;;;;;;;;;;5005823;28;20495;-73
2021/08/18 07:59:08;;;;;;;18.07;9.93;;;;;;;;;;5000296;28;20546;-72
2021/08/18 08:01:34;;;;;;;19.77;10.50;;;;;;;;;;5009514;28;20483;-71
2021/08/18 08:04:00;;;;;;;16.67;9.87;;;;;;;;;;5008799;28;20439;-72
2021/08/18 08:06:26;;;;;;;16.00;9.70;;;;;;;;;;5003898;28;20935;-72
2021/08/18 08:08:52;;;;;;;17.00;10.47;;;;;;;;;;5010999;28;20463;-72
2021/08/18 08:11:19;;;;;;;17.17;10.17;;;;;;;;;;5010350;28;20411;-73
2021/08/18 08:13:45;;;;;;;14.83;9.77;;;;;;;;;;5009773;28;20838;-72
2021/08/18 08:16:11;;;;;;;16.87;10.30;;;;;;;;;;5008501;28;20416;-72
2021/08/18 08:18:37;;;;;;;16.10;9.70;;;;;;;;;;5004058;28;20427;-72
2021/08/18 08:21:03;;;;;;;15.43;10.47;;;;;;;;;;5010070;28;20436;-71
2021/08/18 08:23:29;;;;;;;14.13;9.37;;;;;;;;;;5008223;28;20458;-72
2021/08/18 08:25:55;;;;;;;15.47;9.77;;;;;;;;;;4993095;28;20408;-72
2021/08/18 08:28:21;;;;;;;17.10;9.23;;;;;;;;;;5007727;28;20459;-72
2021/08/18 08:30:49;;;;;;;14.70;9.10;;;;;;;;;;5006306;28;20543;-74
2021/08/18 08:33:15;;;;;;;13.93;9.07;;;;;;;;;;5008240;28;20497;-73
2021/08/18 08:35:42;;;;;;;15.23;9.70;;;;;;;;;;4999885;28;20422;-72
2021/08/18 08:38:08;;;;;;;13.63;8.20;;;;;;;;;;5014625;28;20435;-74
2021/08/18 08:40:34;;;;;;;14.37;9.47;;;;;;;;;;5011117;28;20904;-72
2021/08/18 08:43:01;;;;;;;15.73;9.10;;;;;;;;;;5009035;28;20449;-72
2021/08/18 08:45:27;;;;;;;13.60;7.60;;;;;;;;;;5005649;28;20430;-73
2021/08/18 08:47:53;;;;;;;13.17;8.40;;;;;;;;;;5002484;28;20422;-72
2021/08/18 08:50:20;;;;;;;15.77;8.90;;;;;;;;;;5014952;28;20423;-73
2021/08/18 08:52:46;;;;;;;15.73;8.73;;;;;;;;;;5013825;28;20443;-72
2021/08/18 08:55:12;;;;;;;16.37;8.87;;;;;;;;;;5015688;28;20793;-72
2021/08/18 08:57:45;;;;;;;17.33;9.40;;;;;;;;;;5006336;28;20412;-73
2021/08/18 09:00:11;;;;;;;14.20;8.43;;;;;;;;;;5011721;28;20544;-73
2021/08/18 09:02:37;;;;;;;11.30;6.90;;;;;;;;;;5011377;28;20870;-73
2021/08/18 09:05:04;;;;;;;11.33;8.50;;;;;;;;;;5007749;28;20667;-73
2021/08/18 09:07:30;;;;;;;15.43;8.50;;;;;;;;;;5012377;28;20427;-73
2021/08/18 09:10:00;;;;;;;14.83;8.13;;;;;;;;;;5011518;28;20462;-73
2021/08/18 09:12:32;;;;;;;15.43;9.03;;;;;;;;;;5016056;28;20519;-72
2021/08/18 09:15:12;;;;;;;13.03;8.43;;;;;;;;;;5008666;28;20439;-73
2021/08/18 09:17:38;;;;;;;12.93;8.40;;;;;;;;;;5002172;28;20420;-73
2021/08/18 09:20:04;;;;;;;13.53;8.77;;;;;;;;;;5015083;28;20915;-73
2021/08/18 09:22:30;;;;;;;15.10;8.20;;;;;;;;;;5013586;28;20419;-73
2021/08/18 09:25:10;;;;;;;14.40;9.20;;;;;;;;;;5011370;28;20470;-72
2021/08/18 09:27:37;;;;;;;15.07;8.67;;;;;;;;;;5014578;28;20876;-71
2021/08/18 09:30:04;;;;;;;15.23;7.37;;;;;;;;;;5010671;28;20436;-71
2021/08/18 09:32:35;;;;;;;13.57;9.10;;;;;;;;;;5013241;28;20498;-72
2021/08/18 09:35:02;;;;;;;11.20;7.70;;;;;;;;;;5006593;28;20514;-72
2021/08/18 09:37:28;;;;;;;14.23;8.07;;;;;;;;;;5012573;28;20416;-71
2021/08/18 09:39:55;;;;;;;11.10;7.30;;;;;;;;;;5012633;28;20430;-71
2021/08/18 09:42:29;;;;;;;15.47;7.37;;;;;;;;;;5013739;28;20798;-71
2021/08/18 09:45:14;;;;;;;15.57;7.37;;;;;;;;;;5012056;28;20430;-71
2021/08/18 09:47:59;;;;;;;11.60;7.40;;;;;;;;;;5005969;28;20414;-71
2021/08/18 09:50:26;;;;;;;13.73;7.57;;;;;;;;;;5003059;28;20927;-72
2021/08/18 09:52:53;;;;;;;12.33;7.20;;;;;;;;;;5007318;28;20522;-72
2021/08/18 09:55:25;;;;;;;18.80;9.17;;;;;;;;;;4983601;28;20459;-72
2021/08/18 09:57:52;;;;;;;13.13;7.80;;;;;;;;;;5011030;28;20470;-72
2021/08/18 10:00:20;;;;;;;14.40;7.60;;;;;;;;;;5013206;28;20943;-72
2021/08/18 10:02:46;;;;;;;11.90;7.47;;;;;;;;;;5005481;28;20425;-71
2021/08/18 10:05:12;;;;;;;11.63;7.13;;;;;;;;;;5000946;28;20499;-72
2021/08/18 10:07:39;;;;;;;14.93;7.20;;;;;;;;;;5012321;28;20423;-72
2021/08/18 10:10:05;;;;;;;11.63;7.60;;;;;;;;;;5008509;28;20999;-74
2021/08/18 10:12:31;;;;;;;12.30;7.97;;;;;;;;;;4994464;28;20777;-72
2021/08/18 10:15:01;;;;;;;11.63;7.53;;;;;;;;;;5010075;28;20522;-73
2021/08/18 10:17:30;;;;;;;11.43;6.60;;;;;;;;;;5016797;28;20973;-73
2021/08/18 10:19:56;;;;;;;12.30;6.97;;;;;;;;;;5011443;28;20447;-71
2021/08/18 10:22:29;;;;;;;11.53;7.83;;;;;;;;;;5013973;28;20495;-71
2021/08/18 10:24:55;;;;;;;10.53;6.83;;;;;;;;;;5008824;28;20423;-71
2021/08/18 10:27:56;;;;;;;11.87;7.27;;;;;;;;;;5008254;28;20415;-71
2021/08/18 10:30:24;;;;;;;10.57;6.57;;;;;;;;;;4957918;28;20459;-71
2021/08/18 10:32:50;;;;;;;11.67;6.50;;;;;;;;;;4994407;28;20432;-72
2021/08/18 10:35:35;;;;;;;13.37;7.27;;;;;;;;;;5010829;28;20467;-72
2021/08/18 10:38:19;;;;;;;11.37;6.87;;;;;;;;;;5020348;28;20408;-72
2021/08/18 10:40:45;;;;;;;11.20;6.90;;;;;;;;;;5008137;28;20412;-73
2021/08/18 10:43:31;;;;;;;10.80;6.90;;;;;;;;;;5010724;28;20531;-71
2021/08/18 10:45:57;;;;;;;11.53;6.60;;;;;;;;;;5012508;28;20833;-71
2021/08/18 10:48:43;;;;;;;12.63;6.30;;;;;;;;;;5013351;28;20494;-71
2021/08/18 10:51:09;;;;;;;12.80;7.17;;;;;;;;;;5012647;28;20784;-72
2021/08/18 10:53:35;;;;;;;15.13;6.93;;;;;;;;;;5012392;28;20931;-72
2021/08/18 10:56:01;;;;;;;10.57;7.47;;;;;;;;;;5013358;28;20779;-72
2021/08/18 10:58:28;;;;;;;9.67;6.97;;;;;;;;;;5009071;28;20427;-72
2021/08/18 11:00:54;;;;;;;10.80;6.33;;;;;;;;;;5008191;28;20835;-72
2021/08/18 11:03:31;;;;;;;11.77;7.30;;;;;;;;;;5009548;28;20440;-72
2021/08/18 11:05:58;;;;;;;10.70;7.00;;;;;;;;;;4999052;28;20420;-73
2021/08/18 11:08:24;;;;;;;10.53;7.07;;;;;;;;;;5000983;28;20468;-72
2021/08/18 11:10:53;;;;;;;14.33;7.80;;;;;;;;;;5007420;28;20423;-72
2021/08/18 11:13:36;;;;;;;12.70;7.37;;;;;;;;;;5003034;28;20447;-72
2021/08/18 11:16:06;;;;;;;10.60;7.20;;;;;;;;;;5008392;28;20905;-72
2021/08/18 11:18:32;;;;;;;11.77;6.90;;;;;;;;;;5010446;28;20734;-72
2021/08/18 11:20:59;;;;;;;10.53;6.20;;;;;;;;;;5008241;28;20431;-71
2021/08/18 11:23:25;;;;;;;12.20;7.10;;;;;;;;;;4999335;28;20857;-72
2021/08/18 11:25:56;;;;;;;11.33;7.37;;;;;;;;;;5010904;28;20431;-72
2021/08/18 11:28:22;;;;;;;10.57;6.70;;;;;;;;;;5005731;28;20458;-73
2021/08/18 11:30:56;;;;;;;9.50;6.63;;;;;;;;;;5006899;28;20832;-73
2021/08/18 11:33:22;;;;;;;10.07;5.40;;;;;;;;;;5010049;28;20463;-73
2021/08/18 11:35:49;;;;;;;10.73;5.60;;;;;;;;;;5003901;28;20911;-72
2021/08/18 11:38:15;;;;;;;10.17;6.87;;;;;;;;;;5005549;28;20463;-73
2021/08/18 11:40:42;;;;;;;9.97;6.10;;;;;;;;;;5005497;28;20465;-72
2021/08/18 11:43:08;;;;;;;10.53;6.03;;;;;;;;;;5011991;28;20439;-72
2021/08/18 11:45:35;;;;;;;8.43;5.23;;;;;;;;;;5010564;28;20450;-72
2021/08/18 11:48:11;;;;;;;8.70;5.50;;;;;;;;;;4995932;28;20424;-72
2021/08/18 11:50:38;;;;;;;7.77;5.00;;;;;;;;;;4997449;28;20432;-71
2021/08/18 11:53:06;;;;;;;11.03;6.30;;;;;;;;;;5004980;28;20941;-72
2021/08/18 11:55:33;;;;;;;9.73;5.20;;;;;;;;;;5006968;28;20452;-72
2021/08/18 11:58:01;;;;;;;8.93;5.47;;;;;;;;;;4994297;28;20416;-73
2021/08/18 12:00:27;;;;;;;7.23;5.10;;;;;;;;;;5006489;28;20967;-72
2021/08/18 12:02:53;;;;;;;8.40;4.90;;;;;;;;;;5016326;28;20447;-71
2021/08/18 12:05:27;;;;;;;7.33;5.10;;;;;;;;;;5008222;28;20434;-71
2021/08/18 12:08:05;;;;;;;6.27;4.37;;;;;;;;;;5000398;28;20412;-72
2021/08/18 12:10:37;;;;;;;8.17;4.73;;;;;;;;;;5008090;28;20423;-72
2021/08/18 12:13:04;;;;;;;8.40;4.20;;;;;;;;;;5013610;28;21134;-72
2021/08/18 12:15:33;;;;;;;6.43;4.40;;;;;;;;;;5011098;28;20508;-73
2021/08/18 12:17:59;;;;;;;6.50;4.00;;;;;;;;;;5003869;28;20443;-72
2021/08/18 12:20:29;;;;;;;6.87;4.73;;;;;;;;;;5014699;28;20812;-73
2021/08/18 12:22:56;;;;;;;6.33;4.20;;;;;;;;;;4998515;28;20839;-73
2021/08/18 12:25:29;;;;;;;7.10;4.67;;;;;;;;;;5011935;28;20908;-73
2021/08/18 12:28:13;;;;;;;6.80;3.80;;;;;;;;;;5003759;28;20464;-73
2021/08/18 12:30:55;;;;;;;7.60;3.93;;;;;;;;;;5004114;28;20435;-73
2021/08/18 12:33:21;;;;;;;7.57;3.90;;;;;;;;;;5005849;28;20470;-74
2021/08/18 12:36:03;;;;;;;6.60;4.10;;;;;;;;;;5006262;28;20431;-73
2021/08/18 12:38:29;;;;;;;5.83;4.13;;;;;;;;;;5017574;28;20412;-74
2021/08/18 12:41:08;;;;;;;7.13;4.20;;;;;;;;;;5004164;28;20968;-73
2021/08/18 12:43:35;;;;;;;6.73;4.30;;;;;;;;;;5009897;28;20467;-73
2021/08/18 12:46:01;;;;;;;6.30;3.47;;;;;;;;;;5003319;28;20450;-72
2021/08/18 12:48:29;;;;;;;6.80;3.20;;;;;;;;;;5015319;28;21033;-72
2021/08/18 12:50:58;;;;;;;7.10;4.20;;;;;;;;;;5011529;28;20514;-72
2021/08/18 12:53:24;;;;;;;5.70;3.73;;;;;;;;;;5013770;28;20451;-72
2021/08/18 12:55:51;;;;;;;5.93;3.90;;;;;;;;;;5010916;28;20522;-72
2021/08/18 12:58:21;;;;;;;5.97;3.87;;;;;;;;;;5010991;28;20430;-72
2021/08/18 13:00:48;;;;;;;8.57;4.63;;;;;;;;;;5001327;28;20498;-73
2021/08/18 13:03:14;;;;;;;5.40;3.57;;;;;;;;;;5013182;28;20439;-74
2021/08/18 13:05:40;;;;;;;4.73;3.47;;;;;;;;;;5010665;28;20443;-73
2021/08/18 13:08:06;;;;;;;5.63;3.43;;;;;;;;;;5009657;28;20602;-74
2021/08/18 13:10:33;;;;;;;8.60;4.83;;;;;;;;;;5002663;28;20940;-72
2021/08/18 13:13:02;;;;;;;7.13;3.87;;;;;;;;;;5002132;28;20814;-71
2021/08/18 13:15:29;;;;;;;8.10;4.80;;;;;;;;;;5006665;28;20426;-72
2021/08/18 13:17:55;;;;;;;6.77;3.60;;;;;;;;;;5012783;28;20419;-72
2021/08/18 13:20:21;;;;;;;7.10;3.40;;;;;;;;;;5008411;28;20434;-72
2021/08/18 13:22:47;;;;;;;6.00;3.33;;;;;;;;;;5000567;28;20519;-72
2021/08/18 13:25:13;;;;;;;5.30;3.57;;;;;;;;;;5011334;28;20505;-72
2021/08/18 13:27:39;;;;;;;7.30;3.70;;;;;;;;;;5011462;28;20411;-72
2021/08/18 13:30:09;;;;;;;8.13;4.20;;;;;;;;;;5012963;28;20510;-72
2021/08/18 13:32:36;;;;;;;6.80;4.00;;;;;;;;;;5013334;28;20508;-72
2021/08/18 13:35:02;;;;;;;9.83;4.00;;;;;;;;;;5015221;28;20498;-72
2021/08/18 13:37:28;;;;;;;7.40;3.63;;;;;;;;;;5006557;28;20424;-72
2021/08/18 13:39:54;;;;;;;5.93;3.83;;;;;;;;;;4996401;28;20439;-72
2021/08/18 13:42:20;;;;;;;7.53;4.23;;;;;;;;;;5007804;28;20527;-72
2021/08/18 13:44:46;;;;;;;6.73;3.53;;;;;;;;;;5012739;28;20538;-72
2021/08/18 13:47:12;;;;;;;9.40;4.30;;;;;;;;;;5006251;28;20436;-72
2021/08/18 13:49:38;;;;;;;6.70;3.83;;;;;;;;;;5009283;28;20518;-72
2021/08/18 13:52:04;;;;;;;7.50;4.43;;;;;;;;;;5008807;28;20761;-72
2021/08/18 13:54:30;;;;;;;6.40;3.50;;;;;;;;;;5008402;28;20496;-72
2021/08/18 13:56:57;;;;;;;5.80;3.53;;;;;;;;;;5008353;28;20424;-72
2021/08/18 13:59:23;;;;;;;5.30;2.97;;;;;;;;;;5001932;28;20433;-72
2021/08/18 14:01:49;;;;;;;7.10;3.47;;;;;;;;;;5005335;28;20897;-72
2021/08/18 14:04:15;;;;;;;6.67;4.20;;;;;;;;;;5002684;28;20522;-72
2021/08/18 14:06:41;;;;;;;6.00;3.10;;;;;;;;;;5011469;28;20832;-72
2021/08/18 14:09:08;;;;;;;4.93;3.33;;;;;;;;;;4994462;28;20452;-72
2021/08/18 14:11:34;;;;;;;6.30;3.33;;;;;;;;;;5003183;28;20435;-74
2021/08/18 14:14:00;;;;;;;6.00;3.53;;;;;;;;;;5002462;28;20469;-71
2021/08/18 14:16:26;;;;;;;6.60;3.37;;;;;;;;;;5006326;28;20432;-72
2021/08/18 14:18:52;;;;;;;6.30;3.63;;;;;;;;;;4998544;28;20473;-72
2021/08/18 14:21:18;;;;;;;8.07;3.43;;;;;;;;;;5004436;28;20509;-72
2021/08/18 14:23:44;;;;;;;12.57;3.90;;;;;;;;;;5003430;28;20444;-72
2021/08/18 14:26:10;;;;;;;6.93;3.50;;;;;;;;;;4998281;28;20482;-72
2021/08/18 14:28:37;;;;;;;5.60;3.37;;;;;;;;;;5012437;28;20486;-72
2021/08/18 14:31:04;;;;;;;5.50;2.93;;;;;;;;;;5002751;28;20933;-72
2021/08/18 14:33:30;;;;;;;6.23;4.20;;;;;;;;;;5022921;28;20931;-73